Time;durP1;ratioP1;P1;durP2;ratioP2;P2;SDS_P1;SDS_P2;PMS_P1;PMS_P2;Temp;Humidity;BMP_temperature;BMP_pressure;BME280_temperature;BME280_humidity;BME280_pressure;Samples;Min_cycle;Max_cycle;Signal;HPM_P1;HPM_P2
2021/09/27 00:02:05;;;;;;;21.25;11.13;;;512.30;1766.40;;;;;;5116308;28;20050;-73
2021/09/27 00:04:31;;;;;;;21.00;10.52;;;512.30;1766.40;;;;;;5116003;28;20035;-73
2021/09/27 00:06:57;;;;;;;18.35;10.68;;;512.30;1740.80;;;;;;5116228;28;20080;-73
2021/09/27 00:09:24;;;;;;;15.82;9.52;;;512.30;1740.80;;;;;;5116195;28;20534;-73
2021/09/27 00:11:50;;;;;;;17.77;10.00;;;512.20;1740.80;;;;;;5116067;28;20457;-73
2021/09/27 00:14:16;;;;;;;23.77;10.90;;;512.30;1740.80;;;;;;5116014;28;20444;-73
2021/09/27 00:16:42;;;;;;;20.38;11.55;;;512.20;1740.80;;;;;;5115517;28;20020;-73
2021/09/27 00:19:08;;;;;;;21.42;12.65;;;512.20;1766.40;;;;;;5115425;28;20028;-73
2021/09/27 00:21:35;;;;;;;26.27;12.35;;;512.20;1740.80;;;;;;5116012;28;20028;-73
2021/09/27 00:24:03;;;;;;;20.83;13.10;;;512.20;1766.40;;;;;;5115891;28;20032;-73
2021/09/27 00:26:30;;;;;;;23.25;14.90;;;512.20;1740.80;;;;;;5115240;28;20024;-73
2021/09/27 00:28:56;;;;;;;22.65;12.95;;;512.20;1766.40;;;;;;5115533;28;20020;-73
2021/09/27 00:31:22;;;;;;;25.25;12.98;;;512.20;1766.40;;;;;;5115331;28;20411;-73
2021/09/27 00:33:48;;;;;;;22.88;13.07;;;512.20;1766.40;;;;;;5115556;28;20024;-73
2021/09/27 00:36:16;;;;;;;22.80;12.13;;;512.20;1766.40;;;;;;5115389;28;20024;-73
2021/09/27 00:38:42;;;;;;;19.02;12.30;;;512.20;1740.80;;;;;;5115357;28;20437;-73
2021/09/27 00:41:11;;;;;;;24.00;12.05;;;512.20;1740.80;;;;;;5114913;28;20019;-73
2021/09/27 00:43:39;;;;;;;20.67;12.40;;;512.20;1766.40;;;;;;5114072;28;20027;-73
2021/09/27 00:46:09;;;;;;;23.52;12.65;;;512.10;1766.40;;;;;;5113966;28;20119;-73
2021/09/27 00:48:35;;;;;;;24.27;11.90;;;512.10;1766.40;;;;;;5114257;28;20030;-73
2021/09/27 00:51:06;;;;;;;20.38;12.93;;;512.10;1766.40;;;;;;5115489;28;20150;-73
2021/09/27 00:54:02;;;;;;;27.70;12.85;;;512.10;1766.40;;;;;;5114580;28;20024;-73
2021/09/27 00:56:36;;;;;;;22.30;11.90;;;512.10;1766.40;;;;;;5113894;28;20097;-73
2021/09/27 00:59:02;;;;;;;20.65;11.43;;;512.00;1792.00;;;;;;5115308;28;20026;-73
2021/09/27 01:01:28;;;;;;;23.80;11.90;;;512.00;1792.00;;;;;;5115007;28;20085;-72
2021/09/27 01:03:55;;;;;;;17.55;11.40;;;512.00;1792.00;;;;;;5114748;28;20024;-72
2021/09/27 01:06:42;;;;;;;23.38;12.18;;;512.00;1792.00;;;;;;5114592;28;20038;-72
2021/09/27 01:09:20;;;;;;;22.73;12.68;;;512.00;1792.00;;;;;;5113546;28;20123;-72
2021/09/27 01:12:00;;;;;;;22.95;12.98;;;512.00;1792.00;;;;;;5114910;28;20034;-73
2021/09/27 01:15:04;;;;;;;18.80;12.25;;;512.00;1792.00;;;;;;5114993;28;20115;-72
2021/09/27 01:17:35;;;;;;;21.17;12.38;;;512.00;1766.40;;;;;;5113369;28;20050;-72
2021/09/27 01:20:13;;;;;;;22.58;12.10;;;512.00;1766.40;;;;;;5114885;28;20019;-73
2021/09/27 01:23:04;;;;;;;20.45;11.10;;;512.00;1766.40;;;;;;5113507;28;20073;-73
2021/09/27 01:25:55;;;;;;;18.73;11.55;;;512.00;1766.40;;;;;;5114868;28;20114;-73
2021/09/27 01:28:35;;;;;;;21.90;11.57;;;512.00;1766.40;;;;;;5114643;28;20109;-72
2021/09/27 01:31:16;;;;;;;15.80;11.20;;;512.00;1766.40;;;;;;5114374;28;20484;-73
2021/09/27 01:34:07;;;;;;;16.00;9.60;;;512.00;1792.00;;;;;;5114739;28;20456;-73
2021/09/27 01:36:45;;;;;;;15.50;9.30;;;487.30;1792.00;;;;;;5113105;28;20027;-72
2021/09/27 01:39:17;;;;;;;14.35;8.82;;;487.30;1766.40;;;;;;5113875;28;20069;-73
2021/09/27 01:41:52;;;;;;;12.02;8.18;;;487.30;1740.80;;;;;;5114134;28;20497;-73
2021/09/27 01:44:31;;;;;;;12.77;8.23;;;487.30;1740.80;;;;;;5114514;28;20081;-73
2021/09/27 01:47:05;;;;;;;12.13;8.07;;;487.30;1715.20;;;;;;5113009;28;20123;-72
2021/09/27 01:49:50;;;;;;;14.13;7.55;;;487.20;1689.60;;;;;;5114419;28;20032;-72
2021/09/27 01:52:39;;;;;;;15.45;8.40;;;487.30;1689.60;;;;;;5112771;28;20038;-72
2021/09/27 01:55:21;;;;;;;11.52;8.13;;;487.20;1689.60;;;;;;5114085;28;20027;-72
2021/09/27 01:58:15;;;;;;;11.27;7.25;;;487.20;1689.60;;;;;;5112909;28;20106;-72
2021/09/27 02:00:48;;;;;;;12.65;7.18;;;487.20;1689.60;;;;;;5034506;28;20092;-72
2021/09/27 02:03:42;;;;;;;9.43;6.83;;;487.20;1689.60;;;;;;5051411;28;20029;-72
2021/09/27 02:06:31;;;;;;;9.25;6.80;;;487.20;1664.00;;;;;;5050680;28;20414;-72
2021/09/27 02:09:18;;;;;;;11.05;6.78;;;487.20;1664.00;;;;;;5051416;28;20029;-72
2021/09/27 02:11:50;;;;;;;13.02;7.30;;;487.20;1664.00;;;;;;5052011;28;20037;-72
2021/09/27 02:14:31;;;;;;;10.63;6.65;;;487.20;1664.00;;;;;;5051580;28;20060;-72
2021/09/27 02:17:08;;;;;;;16.33;7.22;;;487.20;1664.00;;;;;;5051158;28;20442;-72
2021/09/27 02:19:46;;;;;;;13.07;6.60;;;487.20;1638.40;;;;;;5051308;28;20096;-72
2021/09/27 02:22:32;;;;;;;10.13;7.25;;;487.20;1638.40;;;;;;5051490;28;20491;-72
2021/09/27 02:25:17;;;;;;;11.00;7.47;;;487.10;1638.40;;;;;;5051176;28;20099;-71
2021/09/27 02:27:46;;;;;;;13.07;8.05;;;487.10;1612.80;;;;;;5050437;28;20124;-71
2021/09/27 02:30:19;;;;;;;12.82;7.63;;;487.10;1638.40;;;;;;5050744;28;20045;-71
2021/09/27 02:32:56;;;;;;;14.02;7.75;;;487.10;1638.40;;;;;;5051018;28;20052;-71
2021/09/27 02:35:51;;;;;;;8.75;7.40;;;487.10;1638.40;;;;;;5050938;28;20083;-71
2021/09/27 02:38:54;;;;;;;14.50;8.57;;;487.10;1638.40;;;;;;5101371;28;20092;-71
2021/09/27 02:41:34;;;;;;;16.02;8.25;;;487.00;1638.40;;;;;;5113592;28;20081;-71
2021/09/27 02:44:00;;;;;;;14.77;7.40;;;487.00;1638.40;;;;;;5112262;28;20482;-71
2021/09/27 02:46:29;;;;;;;11.10;6.97;;;486.90;1638.40;;;;;;5113569;28;20115;-71
2021/09/27 02:49:07;;;;;;;15.57;9.75;;;486.90;1638.40;;;;;;5114368;28;20024;-71
2021/09/27 02:51:33;;;;;;;12.18;7.53;;;486.90;1638.40;;;;;;5116325;28;20392;-71
2021/09/27 02:53:59;;;;;;;15.05;7.93;;;486.90;1638.40;;;;;;5116317;28;20023;-71
2021/09/27 02:56:32;;;;;;;10.68;7.60;;;486.90;1638.40;;;;;;5117541;28;20106;-71
2021/09/27 02:59:18;;;;;;;12.73;8.57;;;486.90;1638.40;;;;;;5117270;28;20020;-70
2021/09/27 03:01:56;;;;;;;12.68;7.10;;;486.90;1638.40;;;;;;5117189;28;20738;-70
2021/09/27 03:04:31;;;;;;;9.02;7.20;;;486.90;1638.40;;;;;;5115907;28;20071;-70
2021/09/27 03:07:06;;;;;;;11.32;6.78;;;486.90;1638.40;;;;;;5117516;28;20023;-72
2021/09/27 03:09:38;;;;;;;12.20;6.75;;;486.80;1638.40;;;;;;5116101;28;20051;-71
2021/09/27 03:12:14;;;;;;;15.38;7.63;;;486.80;1638.40;;;;;;5117126;28;20100;-72
2021/09/27 03:14:52;;;;;;;15.50;7.35;;;486.80;1638.40;;;;;;5116831;28;20041;-70
2021/09/27 03:17:21;;;;;;;23.98;7.57;;;486.80;1638.40;;;;;;5115611;28;20044;-70
2021/09/27 03:20:09;;;;;;;23.35;8.18;;;486.80;1638.40;;;;;;5117255;28;20042;-70
2021/09/27 03:23:04;;;;;;;17.85;7.32;;;486.80;1638.40;;;;;;5117150;28;20031;-70
2021/09/27 03:25:44;;;;;;;10.55;6.68;;;486.80;1638.40;;;;;;5117072;28;20057;-70
2021/09/27 03:28:18;;;;;;;12.95;7.57;;;486.80;1638.40;;;;;;5117018;28;20419;-70
2021/09/27 03:30:50;;;;;;;9.98;7.20;;;486.90;1638.40;;;;;;5116979;28;20483;-70
2021/09/27 03:33:40;;;;;;;16.58;7.72;;;486.80;1638.40;;;;;;5116917;28;20096;-72
2021/09/27 03:36:13;;;;;;;11.25;6.65;;;486.80;1638.40;;;;;;5116815;28;20400;-72
2021/09/27 03:38:58;;;;;;;9.20;7.25;;;486.80;1638.40;;;;;;5116686;28;20342;-70
2021/09/27 03:41:39;;;;;;;10.98;7.20;;;486.80;1638.40;;;;;;5116637;28;20106;-72
2021/09/27 03:44:21;;;;;;;26.30;8.30;;;486.80;1638.40;;;;;;5116914;28;20529;-70
2021/09/27 03:47:06;;;;;;;13.15;7.97;;;486.80;1664.00;;;;;;5116715;28;20023;-70
2021/09/27 03:49:45;;;;;;;13.20;7.88;;;486.80;1664.00;;;;;;5116664;28;20465;-72
2021/09/27 03:52:17;;;;;;;13.63;7.93;;;486.70;1664.00;;;;;;5116422;28;20350;-69
2021/09/27 03:55:09;;;;;;;9.82;7.95;;;486.70;1664.00;;;;;;5116604;28;20050;-69
2021/09/27 03:57:43;;;;;;;15.20;8.32;;;486.70;1664.00;;;;;;5116502;28;20523;-69
2021/09/27 04:00:14;;;;;;;14.40;8.50;;;486.70;1664.00;;;;;;5115742;28;20463;-70
2021/09/27 04:02:52;;;;;;;15.25;8.02;;;486.70;1664.00;;;;;;5115968;28;20016;-70
2021/09/27 04:05:39;;;;;;;14.75;7.72;;;486.70;1664.00;;;;;;5116115;28;20067;-70
2021/09/27 04:08:13;;;;;;;12.68;7.93;;;486.70;1689.60;;;;;;5116440;28;20115;-70
2021/09/27 04:11:14;;;;;;;15.30;7.88;;;486.70;1689.60;;;;;;5116275;28;20084;-69
2021/09/27 04:14:09;;;;;;;12.93;7.88;;;486.70;1689.60;;;;;;5116124;28;20032;-70
2021/09/27 04:16:37;;;;;;;16.23;7.68;;;486.70;1715.20;;;;;;5112649;28;20035;-70
2021/09/27 04:19:30;;;;;;;14.48;7.70;;;486.70;1689.60;;;;;;5116133;28;20511;-69
2021/09/27 04:22:12;;;;;;;15.50;8.65;;;486.70;1689.60;;;;;;5115715;28;20020;-70
2021/09/27 04:24:50;;;;;;;13.93;7.82;;;486.70;1689.60;;;;;;5116047;28;20031;-70
2021/09/27 04:27:21;;;;;;;14.10;8.95;;;486.70;1689.60;;;;;;5116107;28;20020;-70
2021/09/27 04:30:13;;;;;;;22.17;8.75;;;486.80;1689.60;;;;;;5115970;28;20039;-70
2021/09/27 04:32:42;;;;;;;15.10;8.48;;;486.80;1689.60;;;;;;5111643;28;20494;-70
2021/09/27 04:35:34;;;;;;;13.50;8.27;;;486.80;1689.60;;;;;;5115739;28;20032;-70
2021/09/27 04:38:03;;;;;;;19.92;8.68;;;486.80;1689.60;;;;;;5115646;28;20028;-70
2021/09/27 04:40:43;;;;;;;16.52;8.50;;;486.90;1664.00;;;;;;5115838;28;20055;-70
2021/09/27 04:43:30;;;;;;;18.58;8.65;;;486.90;1664.00;;;;;;5115432;28;20130;-70
2021/09/27 04:46:08;;;;;;;17.65;8.75;;;486.90;1664.00;;;;;;5115335;28;20419;-69
2021/09/27 04:48:58;;;;;;;19.45;8.60;;;486.90;1664.00;;;;;;5114127;28;20126;-70
2021/09/27 04:51:33;;;;;;;19.30;8.77;;;486.90;1664.00;;;;;;5115304;28;20389;-70
2021/09/27 04:54:37;;;;;;;22.50;9.32;;;486.90;1664.00;;;;;;5114085;28;20027;-69
2021/09/27 04:57:19;;;;;;;15.63;8.07;;;487.00;1664.00;;;;;;5052440;28;20033;-69
2021/09/27 04:59:51;;;;;;;20.20;9.55;;;487.00;1664.00;;;;;;5052708;28;20029;-70
2021/09/27 05:02:34;;;;;;;14.07;8.02;;;487.10;1689.60;;;;;;5052570;28;20041;-69
2021/09/27 05:05:15;;;;;;;14.93;8.15;;;487.10;1664.00;;;;;;5051558;28;20073;-70
2021/09/27 05:08:19;;;;;;;16.02;8.30;;;487.10;1664.00;;;;;;5052381;28;20033;-69
2021/09/27 05:11:32;;;;;;;18.10;7.85;;;487.10;1664.00;;;;;;4954559;29;20106;-70
2021/09/27 05:13:58;;;;;;;15.00;7.57;;;487.20;1664.00;;;;;;4897237;29;20041;-69
2021/09/27 05:16:35;;;;;;;15.30;7.50;;;487.20;1664.00;;;;;;4897200;29;20039;-69
2021/09/27 05:19:39;;;;;;;12.35;7.47;;;487.20;1638.40;;;;;;4897179;29;20045;-69
2021/09/27 05:22:19;;;;;;;13.68;7.82;;;487.20;1638.40;;;;;;4896680;29;20403;-70
2021/09/27 05:24:53;;;;;;;17.63;7.72;;;487.20;1638.40;;;;;;4897037;29;20051;-69
2021/09/27 05:27:47;;;;;;;16.30;8.18;;;487.20;1612.80;;;;;;4896705;29;20518;-69
2021/09/27 05:30:31;;;;;;;18.15;8.45;;;487.30;1612.80;;;;;;4898303;29;20112;-70
2021/09/27 05:33:27;;;;;;;19.05;8.18;;;487.30;1612.80;;;;;;4903600;29;20029;-70
2021/09/27 05:35:59;;;;;;;23.48;9.27;;;512.00;1587.20;;;;;;4953776;29;20038;-70
2021/09/27 05:38:46;;;;;;;24.98;8.48;;;512.00;1587.20;;;;;;4953958;28;20090;-70
2021/09/27 05:41:24;;;;;;;23.90;8.38;;;512.00;1587.20;;;;;;4953318;29;20042;-70
2021/09/27 05:44:05;;;;;;;21.50;9.73;;;512.00;1587.20;;;;;;4953718;29;20163;-70
2021/09/27 05:47:08;;;;;;;22.95;8.40;;;512.00;1587.20;;;;;;4959892;28;20039;-70
2021/09/27 05:49:50;;;;;;;20.50;8.45;;;512.00;1587.20;;;;;;5068974;28;20122;-69
2021/09/27 05:52:44;;;;;;;24.73;8.68;;;512.00;1612.80;;;;;;5110580;28;20024;-69
2021/09/27 05:55:22;;;;;;;12.18;7.65;;;512.00;1638.40;;;;;;5111155;28;20027;-69
2021/09/27 05:57:54;;;;;;;24.08;8.88;;;512.00;1638.40;;;;;;5114163;28;20028;-69
2021/09/27 06:00:39;;;;;;;26.25;8.50;;;512.00;1638.40;;;;;;5114175;28;20552;-69
2021/09/27 06:03:31;;;;;;;31.15;8.80;;;512.00;1638.40;;;;;;5112371;28;20038;-70
2021/09/27 06:06:15;;;;;;;20.25;9.30;;;512.00;1638.40;;;;;;5113965;28;20032;-69
2021/09/27 06:09:00;;;;;;;20.65;9.32;;;512.00;1664.00;;;;;;5113930;28;20047;-69
2021/09/27 06:11:31;;;;;;;15.50;9.80;;;512.00;1664.00;;;;;;5112573;28;20039;-71
2021/09/27 06:13:59;;;;;;;16.80;9.70;;;512.00;1664.00;;;;;;5112736;28;20409;-73
2021/09/27 06:16:46;;;;;;;14.30;9.73;;;512.00;1664.00;;;;;;5113698;28;20028;-72
2021/09/27 06:19:41;;;;;;;17.10;8.88;;;512.00;1664.00;;;;;;5114051;28;20106;-70
2021/09/27 06:22:52;;;;;;;20.65;9.50;;;512.00;1664.00;;;;;;5113857;28;20027;-70
2021/09/27 06:25:24;;;;;;;29.73;10.48;;;512.00;1664.00;;;;;;5057119;28;20101;-69
2021/09/27 06:28:07;;;;;;;31.77;13.68;;;512.00;1689.60;;;;;;5075309;28;20039;-69
2021/09/27 06:30:52;;;;;;;23.02;12.15;;;512.00;1689.60;;;;;;5075725;28;20044;-69
2021/09/27 06:33:31;;;;;;;54.97;15.38;;;512.10;1689.60;;;;;;5075383;28;20082;-69
2021/09/27 06:36:03;;;;;;;21.33;12.27;;;512.10;1689.60;;;;;;5075032;28;20107;-69
2021/09/27 06:38:35;;;;;;;21.15;12.98;;;512.10;1689.60;;;;;;5075215;28;20021;-69
2021/09/27 06:41:02;;;;;;;29.00;11.63;;;512.10;1689.60;;;;;;5074954;28;20033;-69
2021/09/27 06:43:28;;;;;;;18.17;10.23;;;512.10;1689.60;;;;;;5075198;28;20045;-69
2021/09/27 06:45:55;;;;;;;21.45;10.27;;;512.10;1689.60;;;;;;5074986;28;20086;-69
2021/09/27 06:48:22;;;;;;;20.00;9.68;;;512.20;1664.00;;;;;;5075362;28;20115;-69
2021/09/27 06:50:48;;;;;;;17.65;10.30;;;512.20;1664.00;;;;;;5074863;28;20039;-69
2021/09/27 06:53:15;;;;;;;17.52;10.48;;;512.10;1664.00;;;;;;5075005;28;20029;-69
2021/09/27 06:55:41;;;;;;;18.25;10.68;;;512.20;1664.00;;;;;;5074830;28;20028;-69
2021/09/27 06:58:07;;;;;;;16.88;9.75;;;512.20;1664.00;;;;;;5075160;28;20029;-69
2021/09/27 07:00:33;;;;;;;18.23;10.50;;;512.20;1664.00;;;;;;5074630;28;20107;-69
2021/09/27 07:02:59;;;;;;;18.98;10.80;;;512.20;1664.00;;;;;;5117670;28;20107;-69
2021/09/27 07:05:25;;;;;;;22.20;10.70;;;512.30;1664.00;;;;;;5117502;28;20043;-69
2021/09/27 07:07:51;;;;;;;18.85;10.85;;;512.30;1664.00;;;;;;5116865;28;20110;-69
2021/09/27 07:10:20;;;;;;;19.83;11.38;;;512.40;1664.00;;;;;;5117629;28;20031;-69
2021/09/27 07:12:46;;;;;;;21.63;10.65;;;512.40;1664.00;;;;;;5117290;28;20024;-69
2021/09/27 07:15:12;;;;;;;15.82;10.70;;;512.40;1664.00;;;;;;5117708;28;20031;-69
2021/09/27 07:17:38;;;;;;;20.05;11.15;;;512.40;1664.00;;;;;;5117452;28;20377;-69
2021/09/27 07:20:15;;;;;;;25.52;11.55;;;512.50;1664.00;;;;;;5115550;28;20031;-69
2021/09/27 07:22:41;;;;;;;16.50;10.98;;;512.50;1664.00;;;;;;5117267;28;20047;-69
2021/09/27 07:25:08;;;;;;;21.73;10.93;;;512.50;1664.00;;;;;;5116966;28;20032;-69
2021/09/27 07:27:35;;;;;;;19.00;10.43;;;512.60;1664.00;;;;;;5115767;28;20126;-69
2021/09/27 07:30:00;;;;;;;21.25;10.18;;;512.60;1664.00;;;;;;5117094;28;20023;-69
2021/09/27 07:32:26;;;;;;;17.40;9.60;;;512.60;1664.00;;;;;;5116775;28;20023;-69
2021/09/27 07:34:52;;;;;;;19.48;9.73;;;512.60;1664.00;;;;;;5117034;28;20047;-69
2021/09/27 07:37:18;;;;;;;21.38;12.10;;;512.70;1664.00;;;;;;5117105;28;20024;-69
2021/09/27 07:39:44;;;;;;;23.80;12.10;;;512.80;1638.40;;;;;;5117107;28;20070;-69
2021/09/27 07:42:10;;;;;;;23.60;11.80;;;512.80;1638.40;;;;;;5116648;28;20051;-69
2021/09/27 07:44:36;;;;;;;23.13;11.95;;;512.80;1638.40;;;;;;5115638;28;20114;-68
2021/09/27 07:47:03;;;;;;;27.60;13.82;;;512.90;1664.00;;;;;;5116538;28;20034;-69
2021/09/27 07:49:29;;;;;;;26.15;13.32;;;512.90;1664.00;;;;;;5116140;28;20496;-69
2021/09/27 07:51:57;;;;;;;20.33;12.77;;;512.90;1664.00;;;;;;5116710;28;20019;-69
2021/09/27 07:54:26;;;;;;;17.58;12.10;;;512.90;1664.00;;;;;;5116599;28;20508;-69
2021/09/27 07:56:52;;;;;;;23.60;12.85;;;537.60;1689.60;;;;;;5116829;28;20043;-69
2021/09/27 07:59:18;;;;;;;18.33;11.90;;;537.60;1689.60;;;;;;5116651;28;20031;-69
2021/09/27 08:01:44;;;;;;;17.55;11.63;;;537.60;1689.60;;;;;;5116275;28;20023;-69
2021/09/27 08:04:09;;;;;;;24.30;11.93;;;537.60;1689.60;;;;;;5116027;28;20023;-69
2021/09/27 08:06:36;;;;;;;19.83;11.50;;;537.60;1689.60;;;;;;5116495;28;20106;-69
2021/09/27 08:09:03;;;;;;;19.00;10.52;;;537.70;1689.60;;;;;;5116379;28;20046;-69
2021/09/27 08:11:30;;;;;;;16.77;10.77;;;537.70;1689.60;;;;;;5116306;28;20027;-69
2021/09/27 08:13:56;;;;;;;18.90;10.73;;;537.70;1689.60;;;;;;5116310;28;20049;-69
2021/09/27 08:16:22;;;;;;;19.70;10.75;;;537.70;1689.60;;;;;;5115928;28;20020;-69
2021/09/27 08:18:47;;;;;;;25.20;10.35;;;537.80;1689.60;;;;;;5114632;28;20038;-69
2021/09/27 08:21:17;;;;;;;17.23;10.50;;;537.80;1689.60;;;;;;5114603;28;20085;-69
2021/09/27 08:23:43;;;;;;;21.73;10.65;;;537.80;1689.60;;;;;;5116133;28;20473;-69
2021/09/27 08:26:09;;;;;;;21.92;11.10;;;537.90;1689.60;;;;;;5115937;28;20039;-69
2021/09/27 08:28:38;;;;;;;18.95;11.05;;;537.90;1689.60;;;;;;5115444;28;20533;-69
2021/09/27 08:31:19;;;;;;;21.83;11.00;;;537.90;1689.60;;;;;;5115767;28;20051;-69
2021/09/27 08:33:45;;;;;;;21.15;10.85;;;537.90;1689.60;;;;;;5114375;28;20068;-69
2021/09/27 08:36:14;;;;;;;23.00;11.90;;;537.90;1689.60;;;;;;5115577;28;20076;-69
2021/09/27 08:38:42;;;;;;;15.45;10.60;;;538.00;1689.60;;;;;;5115070;28;20020;-69
2021/09/27 08:41:23;;;;;;;18.38;10.45;;;538.00;1715.20;;;;;;5115270;28;20388;-69
2021/09/27 08:43:56;;;;;;;18.60;11.65;;;538.00;1715.20;;;;;;5115629;28;20027;-69
2021/09/27 08:46:30;;;;;;;19.20;11.10;;;538.00;1715.20;;;;;;5115039;28;20116;-69
2021/09/27 08:49:21;;;;;;;16.25;9.38;;;538.10;1715.20;;;;;;5115393;28;20055;-69
2021/09/27 08:51:49;;;;;;;20.27;9.02;;;538.10;1689.60;;;;;;5115659;28;20024;-69
2021/09/27 08:54:29;;;;;;;15.15;8.75;;;538.10;1664.00;;;;;;5115453;28;20035;-69
2021/09/27 08:57:09;;;;;;;18.38;8.73;;;538.20;1664.00;;;;;;5115546;27;20072;-69
2021/09/27 08:59:42;;;;;;;12.20;7.88;;;538.30;1638.40;;;;;;5115383;28;20016;-68
2021/09/27 09:02:22;;;;;;;12.48;7.88;;;538.30;1638.40;;;;;;5115177;28;20032;-69
2021/09/27 09:05:14;;;;;;;10.77;7.88;;;538.50;1612.80;;;;;;5115206;28;20130;-69
2021/09/27 09:08:04;;;;;;;14.23;7.65;;;563.20;1612.80;;;;;;5112831;28;20023;-68
2021/09/27 09:10:59;;;;;;;15.70;8.35;;;563.30;1612.80;;;;;;5115210;28;20019;-69
2021/09/27 09:13:33;;;;;;;13.00;7.95;;;563.40;1587.20;;;;;;5115198;28;20039;-69
2021/09/27 09:16:03;;;;;;;12.25;7.55;;;563.60;1587.20;;;;;;5113465;28;20148;-68
2021/09/27 09:18:51;;;;;;;12.88;7.47;;;563.80;1587.20;;;;;;5115220;28;20110;-68
2021/09/27 09:21:46;;;;;;;15.57;6.90;;;564.00;1587.20;;;;;;5114950;28;20069;-68
2021/09/27 09:24:16;;;;;;;13.88;7.78;;;588.80;1587.20;;;;;;5112438;28;20035;-69
2021/09/27 09:26:47;;;;;;;15.23;7.40;;;589.00;1561.60;;;;;;5114560;28;20076;-68
2021/09/27 09:29:19;;;;;;;11.07;6.90;;;589.30;1536.00;;;;;;5114721;28;20023;-69
2021/09/27 09:31:50;;;;;;;13.10;7.88;;;589.40;1510.40;;;;;;5114510;28;20027;-69
2021/09/27 09:34:21;;;;;;;17.95;7.30;;;589.60;1484.80;;;;;;5113360;28;20366;-68
2021/09/27 09:36:50;;;;;;;11.07;7.05;;;589.60;1510.40;;;;;;5114733;28;20362;-69
2021/09/27 09:39:26;;;;;;;12.25;7.15;;;614.40;1484.80;;;;;;5113328;28;20030;-69
2021/09/27 09:42:05;;;;;;;13.80;7.43;;;614.40;1459.20;;;;;;5114493;28;20044;-69
2021/09/27 09:44:44;;;;;;;12.75;7.13;;;614.40;1459.20;;;;;;5113171;28;20031;-69
2021/09/27 09:47:20;;;;;;;15.00;7.55;;;614.40;1433.60;;;;;;5114395;28;20027;-68
2021/09/27 09:49:57;;;;;;;9.50;6.72;;;589.70;1433.60;;;;;;5114744;28;20023;-68
2021/09/27 09:52:49;;;;;;;11.93;6.47;;;589.70;1433.60;;;;;;5114776;28;20377;-68
2021/09/27 09:55:18;;;;;;;16.23;6.63;;;614.40;1433.60;;;;;;5114453;28;20099;-68
2021/09/27 09:57:56;;;;;;;16.45;6.90;;;614.40;1408.00;;;;;;5114264;28;20071;-68
2021/09/27 10:00:47;;;;;;;11.38;6.63;;;614.50;1433.60;;;;;;5113765;28;20019;-68
2021/09/27 10:03:19;;;;;;;12.98;6.20;;;614.70;1408.00;;;;;;5114363;28;20132;-68
2021/09/27 10:05:54;;;;;;;10.27;6.50;;;614.70;1382.40;;;;;;5114198;28;20381;-68
2021/09/27 10:08:26;;;;;;;8.90;6.10;;;614.80;1356.80;;;;;;5114006;28;20042;-68
2021/09/27 10:11:00;;;;;;;10.40;6.18;;;614.90;1382.40;;;;;;5114328;28;20028;-68
2021/09/27 10:13:52;;;;;;;8.38;5.88;;;615.00;1356.80;;;;;;5114022;28;20024;-68
2021/09/27 10:16:44;;;;;;;9.20;5.75;;;615.00;1356.80;;;;;;5114148;28;20080;-68
2021/09/27 10:19:33;;;;;;;10.27;6.65;;;615.10;1356.80;;;;;;5114239;28;20034;-68
2021/09/27 10:22:12;;;;;;;11.50;6.20;;;615.20;1356.80;;;;;;5114037;28;20107;-68
2021/09/27 10:24:41;;;;;;;9.93;6.43;;;615.30;1331.20;;;;;;5112215;28;20039;-68
2021/09/27 10:27:18;;;;;;;8.55;6.22;;;640.00;1331.20;;;;;;5112442;28;20469;-68
2021/09/27 10:29:44;;;;;;;12.18;6.32;;;640.00;1305.60;;;;;;5113154;28;20081;-68
2021/09/27 10:32:39;;;;;;;10.43;5.28;;;640.10;1305.60;;;;;;5112865;28;20035;-67
2021/09/27 10:35:45;;;;;;;9.73;5.97;;;640.10;1305.60;;;;;;5111206;28;20118;-73
2021/09/27 10:38:27;;;;;;;13.55;6.05;;;640.30;1305.60;;;;;;5112087;28;20023;-68
2021/09/27 10:40:54;;;;;;;11.82;5.18;;;640.30;1305.60;;;;;;5113225;28;20031;-69
2021/09/27 10:43:24;;;;;;;12.85;5.40;;;640.30;1280.00;;;;;;5113076;28;20040;-71
2021/09/27 10:45:54;;;;;;;8.45;4.97;;;640.30;1254.40;;;;;;5113276;28;20558;-68
2021/09/27 10:48:21;;;;;;;13.95;5.47;;;640.50;1280.00;;;;;;5113965;28;20372;-68
2021/09/27 10:50:56;;;;;;;14.25;5.18;;;640.50;1280.00;;;;;;5113130;28;20486;-69
2021/09/27 10:53:29;;;;;;;10.20;5.47;;;640.70;1228.80;;;;;;5112781;28;20103;-69
2021/09/27 10:56:23;;;;;;;8.20;5.53;;;640.70;1228.80;;;;;;5110342;28;20020;-69
2021/09/27 10:58:53;;;;;;;13.07;5.63;;;640.70;1228.80;;;;;;5112349;28;20205;-69
2021/09/27 11:01:53;;;;;;;13.07;5.45;;;640.80;1228.80;;;;;;5144104;27;20016;-69
2021/09/27 11:04:40;;;;;;;10.45;5.70;;;640.90;1228.80;;;;;;5050382;28;20036;-73
2021/09/27 11:07:26;;;;;;;9.93;5.60;;;665.60;1228.80;;;;;;5032685;28;20041;-69
2021/09/27 11:09:54;;;;;;;11.35;6.18;;;665.70;1228.80;;;;;;5034803;28;20040;-69
2021/09/27 11:12:41;;;;;;;11.60;5.75;;;665.70;1280.00;;;;;;5054513;28;20051;-71
2021/09/27 11:15:22;;;;;;;9.68;6.05;;;665.80;1280.00;;;;;;5054754;28;20033;-70
2021/09/27 11:18:30;;;;;;;10.75;6.15;;;665.80;1254.40;;;;;;5054589;28;20029;-70
2021/09/27 11:21:16;;;;;;;8.23;5.63;;;666.00;1280.00;;;;;;4956404;29;20417;-70
2021/09/27 11:23:43;;;;;;;12.43;5.80;;;666.00;1280.00;;;;;;4956341;29;20024;-70
2021/09/27 11:26:30;;;;;;;11.60;6.68;;;666.00;1254.40;;;;;;4956212;29;20063;-70
2021/09/27 11:29:21;;;;;;;11.30;6.32;;;666.10;1254.40;;;;;;4956264;29;20034;-70
2021/09/27 11:32:07;;;;;;;11.10;5.38;;;666.10;1228.80;;;;;;4956195;29;20070;-70
2021/09/27 11:34:52;;;;;;;9.93;6.00;;;666.30;1254.40;;;;;;4956235;29;20058;-69
2021/09/27 11:37:17;;;;;;;;;;;666.30;1254.40;;;;;;4956020;29;20059;-71
2021/09/27 11:39:48;;;;;;;11.57;5.45;;;666.40;1254.40;;;;;;4989510;28;19905;-70
2021/09/27 11:42:19;;;;;;;14.35;6.22;;;666.40;1228.80;;;;;;5033591;28;20048;-69
2021/09/27 11:44:59;;;;;;;10.70;5.43;;;666.40;1228.80;;;;;;5031408;28;20041;-69
2021/09/27 11:47:40;;;;;;;13.68;6.20;;;666.50;1228.80;;;;;;5031601;28;20022;-69
2021/09/27 11:50:10;;;;;;;15.90;6.47;;;666.50;1228.80;;;;;;5032233;28;20412;-69
2021/09/27 11:52:57;;;;;;;16.77;5.75;;;691.20;1228.80;;;;;;5016679;28;20017;-69
2021/09/27 11:55:36;;;;;;;7.80;5.63;;;691.30;1228.80;;;;;;5031821;28;20025;-69
2021/09/27 11:58:22;;;;;;;15.40;6.22;;;691.30;1228.80;;;;;;5118665;27;20401;-69
2021/09/27 12:00:56;;;;;;;12.15;6.78;;;691.40;1228.80;;;;;;5115151;28;20027;-70
2021/09/27 12:03:34;;;;;;;9.95;5.78;;;691.40;1228.80;;;;;;5114586;28;20015;-69
2021/09/27 12:06:09;;;;;;;15.73;6.97;;;691.40;1254.40;;;;;;5113648;28;20121;-70
2021/09/27 12:08:56;;;;;;;11.23;5.53;;;691.40;1254.40;;;;;;5111863;28;20035;-69
2021/09/27 12:11:22;;;;;;;11.85;5.75;;;691.50;1254.40;;;;;;5116294;28;20076;-69
2021/09/27 12:13:59;;;;;;;11.18;6.03;;;691.50;1228.80;;;;;;5116387;28;20470;-69
2021/09/27 12:16:47;;;;;;;10.93;5.75;;;691.50;1228.80;;;;;;5116358;28;20028;-69
2021/09/27 12:19:25;;;;;;;10.98;6.10;;;691.60;1203.20;;;;;;5116018;28;20425;-69
2021/09/27 12:21:55;;;;;;;20.02;6.28;;;691.60;1228.80;;;;;;5115280;28;20031;-69
2021/09/27 12:24:32;;;;;;;14.82;5.82;;;691.70;1228.80;;;;;;5116110;28;20048;-69
2021/09/27 12:27:15;;;;;;;16.65;5.63;;;691.70;1228.80;;;;;;5116205;28;20031;-69
2021/09/27 12:30:00;;;;;;;16.25;5.85;;;691.70;1228.80;;;;;;5116144;28;20030;-69
2021/09/27 12:32:31;;;;;;;11.27;5.35;;;691.80;1228.80;;;;;;5114589;28;20127;-69
2021/09/27 12:34:59;;;;;;;9.70;5.82;;;691.80;1228.80;;;;;;5113459;28;20023;-69
2021/09/27 12:37:32;;;;;;;15.90;6.05;;;691.80;1254.40;;;;;;5114121;28;20032;-69
2021/09/27 12:39:59;;;;;;;12.27;5.63;;;691.80;1254.40;;;;;;5115947;28;20034;-69
2021/09/27 12:42:28;;;;;;;14.98;6.07;;;691.90;1228.80;;;;;;5115536;28;20123;-69
2021/09/27 12:45:02;;;;;;;20.92;6.03;;;691.90;1254.40;;;;;;5115589;28;20038;-69
2021/09/27 12:47:28;;;;;;;10.65;5.70;;;691.90;1228.80;;;;;;5114719;28;20028;-69
2021/09/27 12:49:59;;;;;;;13.77;6.40;;;691.80;1228.80;;;;;;5113267;28;20024;-69
2021/09/27 12:52:49;;;;;;;11.43;5.47;;;691.80;1228.80;;;;;;5115949;28;20026;-69
2021/09/27 12:55:20;;;;;;;15.55;6.00;;;691.80;1254.40;;;;;;5115255;28;20069;-69